Time,TemperatureF,DewpointF,PressureIn,WindDirection,WindDirectionDegrees,WindSpeedMPH,WindSpeedGustMPH,Humidity,HourlyPrecipIn,Conditions,Clouds,dailyrainin,SoftwareType,DateUTC
2013-03-23 00:02:00,16.8,13.9,30.14,NNW,341,0.0,0.0,88,0.00,,,0.00,Wunderground v.1.15,2013-03-23 05:02:00,
2013-03-23 00:07:00,16.7,13.8,30.14,NNW,341,0.0,0.0,88,0.00,,,0.00,Wunderground v.1.15,2013-03-23 05:07:00,
2013-03-23 00:13:00,16.7,14.0,30.14,NNW,341,0.0,0.0,89,0.00,,,0.00,Wunderground v.1.15,2013-03-23 05:13:00,
2013-03-23 00:20:00,16.6,13.9,30.14,NNW,341,0.0,0.0,89,0.00,,,0.00,Wunderground v.1.15,2013-03-23 05:20:00,
2013-03-23 00:25:00,16.5,13.8,30.14,NNW,341,0.0,0.0,89,0.00,,,0.00,Wunderground v.1.15,2013-03-23 05:25:00,
2013-03-23 00:30:00,16.3,13.6,30.14,NNW,341,0.0,0.0,89,0.00,,,0.00,Wunderground v.1.15,2013-03-23 05:30:00,
2013-03-23 00:35:00,16.2,13.5,30.14,NNW,341,0.0,0.0,89,0.00,,,0.00,Wunderground v.1.15,2013-03-23 05:35:00,
2013-03-23 00:41:00,16.1,13.4,30.15,NNW,341,0.0,0.0,89,0.00,,,0.00,Wunderground v.1.15,2013-03-23 05:41:00,
2013-03-23 00:47:00,16.1,13.4,30.15,NNW,341,0.0,0.0,89,0.00,,,0.00,Wunderground v.1.15,2013-03-23 05:47:00,
2013-03-23 00:53:00,16.1,13.4,30.14,NNW,341,0.0,0.0,89,0.00,,,0.00,Wunderground v.1.15,2013-03-23 05:53:00,
2013-03-23 00:58:00,16.1,13.7,30.14,NNW,341,0.0,0.0,90,0.00,,,0.00,Wunderground v.1.15,2013-03-23 05:58:00,
2013-03-23 01:04:00,16.2,13.8,30.14,NNW,341,0.0,0.0,90,0.00,,,0.00,Wunderground v.1.15,2013-03-23 06:04:00,
2013-03-23 01:09:00,16.1,13.7,30.14,NNW,341,0.0,0.0,90,0.00,,,0.00,Wunderground v.1.15,2013-03-23 06:09:00,
2013-03-23 01:14:00,16.1,13.7,30.14,NNW,341,0.0,0.0,90,0.00,,,0.00,Wunderground v.1.15,2013-03-23 06:14:00,
2013-03-23 01:19:00,16.2,13.8,30.15,NNW,341,0.0,0.0,90,0.00,,,0.00,Wunderground v.1.15,2013-03-23 06:19:00,
2013-03-23 01:25:00,16.1,13.7,30.15,NNW,341,0.0,0.0,90,0.00,,,0.00,Wunderground v.1.15,2013-03-23 06:25:00,
2013-03-23 01:31:00,16.1,13.7,30.15,NNW,341,0.0,0.0,90,0.00,,,0.00,Wunderground v.1.15,2013-03-23 06:31:00,
2013-03-23 01:37:00,16.0,13.6,30.15,NNW,341,0.0,0.0,90,0.00,,,0.00,Wunderground v.1.15,2013-03-23 06:37:00,
2013-03-23 01:43:00,15.9,13.5,30.14,NNW,341,0.0,0.0,90,0.00,,,0.00,Wunderground v.1.15,2013-03-23 06:43:00,
2013-03-23 01:48:00,15.9,13.5,30.14,NNW,341,0.0,0.0,90,0.00,,,0.00,Wunderground v.1.15,2013-03-23 06:48:00,
2013-03-23 01:54:00,16.0,13.8,30.14,NNW,341,0.0,0.0,91,0.00,,,0.00,Wunderground v.1.15,2013-03-23 06:54:00,
2013-03-23 01:59:00,16.0,13.8,30.14,NNW,341,0.0,0.0,91,0.00,,,0.00,Wunderground v.1.15,2013-03-23 06:59:00,
2013-03-23 02:04:00,16.0,13.1,30.14,NNW,342,0.0,0.0,88,0.00,,,0.00,Wunderground v.1.15,2013-03-23 07:04:00,
2013-03-23 02:09:00,16.0,13.1,30.14,NNW,342,0.0,0.0,88,0.00,,,0.00,Wunderground v.1.15,2013-03-23 07:09:00,
2013-03-23 02:14:00,16.0,13.1,30.14,NNW,341,0.0,0.0,88,0.00,,,0.00,Wunderground v.1.15,2013-03-23 07:14:00,
2013-03-23 02:19:00,16.0,13.3,30.14,NNW,341,0.0,0.0,89,0.00,,,0.00,Wunderground v.1.15,2013-03-23 07:19:00,
2013-03-23 02:25:00,16.1,13.4,30.14,NNW,342,0.0,0.0,89,0.00,,,0.00,Wunderground v.1.15,2013-03-23 07:25:00,
2013-03-23 02:30:00,16.1,13.4,30.15,NNW,341,0.0,0.0,89,0.00,,,0.00,Wunderground v.1.15,2013-03-23 07:30:00,
2013-03-23 02:35:00,16.2,13.5,30.14,NNW,341,0.0,0.0,89,0.00,,,0.00,Wunderground v.1.15,2013-03-23 07:35:00,
2013-03-23 02:40:00,16.2,13.5,30.14,NNW,341,0.0,0.0,89,0.00,,,0.00,Wunderground v.1.15,2013-03-23 07:40:00,
2013-03-23 02:46:00,16.3,13.6,30.14,NNW,341,0.0,0.0,89,0.00,,,0.00,Wunderground v.1.15,2013-03-23 07:46:00,
2013-03-23 02:51:00,16.3,13.6,30.14,NNW,341,0.0,0.0,89,0.00,,,0.00,Wunderground v.1.15,2013-03-23 07:51:00,
2013-03-23 02:57:00,16.4,13.7,30.14,NNW,342,0.0,3.0,89,0.00,,,0.00,Wunderground v.1.15,2013-03-23 07:57:00,
2013-03-23 03:01:00,16.4,13.7,30.14,NNW,342,0.0,0.0,89,0.00,,,0.00,Wunderground v.1.15,2013-03-23 08:01:00,
2013-03-23 03:07:00,16.5,13.8,30.14,NNW,342,0.0,1.0,89,0.00,,,0.00,Wunderground v.1.15,2013-03-23 08:07:00,
2013-03-23 03:12:00,16.7,14.0,30.15,NNW,342,0.0,0.0,89,0.00,,,0.00,Wunderground v.1.15,2013-03-23 08:12:00,
2013-03-23 03:17:00,16.7,14.0,30.15,NNW,342,0.0,0.0,89,0.00,,,0.00,Wunderground v.1.15,2013-03-23 08:17:00,
2013-03-23 03:22:00,16.4,13.7,30.15,NNW,342,0.0,0.0,89,0.00,,,0.00,Wunderground v.1.15,2013-03-23 08:22:00,
2013-03-23 03:27:00,16.3,13.6,30.15,NNW,342,0.0,0.0,89,0.00,,,0.00,Wunderground v.1.15,2013-03-23 08:27:00,
2013-03-23 03:32:00,16.2,13.5,30.15,NNW,342,0.0,0.0,89,0.00,,,0.00,Wunderground v.1.15,2013-03-23 08:32:00,
2013-03-23 03:38:00,16.2,13.5,30.15,NNW,342,0.0,0.0,89,0.00,,,0.00,Wunderground v.1.15,2013-03-23 08:38:00,
2013-03-23 03:43:00,16.2,13.5,30.15,NNW,342,0.0,0.0,89,0.00,,,0.00,Wunderground v.1.15,2013-03-23 08:43:00,
2013-03-23 03:48:00,16.2,13.5,30.15,NNW,341,0.0,0.0,89,0.00,,,0.00,Wunderground v.1.15,2013-03-23 08:48:00,
2013-03-23 03:54:00,16.3,13.6,30.15,NNW,342,0.0,0.0,89,0.00,,,0.00,Wunderground v.1.15,2013-03-23 08:54:00,
2013-03-23 03:59:00,16.4,14.0,30.15,NNW,342,0.0,0.0,90,0.00,,,0.00,Wunderground v.1.15,2013-03-23 08:59:00,
2013-03-23 04:04:00,16.5,14.1,30.14,NNW,341,0.0,0.0,90,0.00,,,0.00,Wunderground v.1.15,2013-03-23 09:04:00,
2013-03-23 04:09:00,16.6,13.9,30.14,NNW,342,0.0,0.0,89,0.00,,,0.00,Wunderground v.1.15,2013-03-23 09:09:00,
2013-03-23 04:14:00,16.5,13.8,30.14,NNW,341,0.0,0.0,89,0.00,,,0.00,Wunderground v.1.15,2013-03-23 09:14:00,
2013-03-23 04:19:00,16.4,13.7,30.14,NNW,342,0.0,0.0,89,0.00,,,0.00,Wunderground v.1.15,2013-03-23 09:19:00,
2013-03-23 04:24:00,16.3,13.6,30.14,NNW,342,0.0,0.0,89,0.00,,,0.00,Wunderground v.1.15,2013-03-23 09:24:00,
2013-03-23 04:29:00,16.3,13.9,30.14,NNW,341,0.0,0.0,90,0.00,,,0.00,Wunderground v.1.15,2013-03-23 09:29:00,
2013-03-23 04:35:00,16.3,13.9,30.14,NNW,342,0.0,0.0,90,0.00,,,0.00,Wunderground v.1.15,2013-03-23 09:35:00,
2013-03-23 04:40:00,16.3,13.9,30.14,NNW,342,0.0,0.0,90,0.00,,,0.00,Wunderground v.1.15,2013-03-23 09:40:00,
2013-03-23 04:45:00,16.3,13.9,30.14,NNW,342,0.0,0.0,90,0.00,,,0.00,Wunderground v.1.15,2013-03-23 09:45:00,
2013-03-23 04:50:00,16.2,13.8,30.14,NNW,342,0.0,0.0,90,0.00,,,0.00,Wunderground v.1.15,2013-03-23 09:50:00,
2013-03-23 04:55:00,16.1,13.7,30.14,NNW,342,0.0,0.0,90,0.00,,,0.00,Wunderground v.1.15,2013-03-23 09:55:00,
2013-03-23 05:00:00,16.1,13.7,30.14,NNW,341,0.0,0.0,90,0.00,,,0.00,Wunderground v.1.15,2013-03-23 10:00:00,
2013-03-23 05:05:00,16.1,13.7,30.14,NNW,342,0.0,0.0,90,0.00,,,0.00,Wunderground v.1.15,2013-03-23 10:05:00,
2013-03-23 05:10:00,16.2,13.8,30.14,NNW,342,0.0,0.0,90,0.00,,,0.00,Wunderground v.1.15,2013-03-23 10:10:00,
2013-03-23 05:15:00,16.2,13.8,30.14,NNW,342,0.0,0.0,90,0.00,,,0.00,Wunderground v.1.15,2013-03-23 10:15:00,
2013-03-23 05:20:00,16.2,13.8,30.14,NNW,342,0.0,0.0,90,0.00,,,0.00,Wunderground v.1.15,2013-03-23 10:20:00,
2013-03-23 05:25:00,16.1,13.7,30.14,NNW,342,0.0,0.0,90,0.00,,,0.00,Wunderground v.1.15,2013-03-23 10:25:00,
2013-03-23 05:31:00,16.1,13.7,30.14,NNW,342,0.0,0.0,90,0.00,,,0.00,Wunderground v.1.15,2013-03-23 10:31:00,
2013-03-23 05:36:00,16.2,13.8,30.14,NNW,342,0.0,0.0,90,0.00,,,0.00,Wunderground v.1.15,2013-03-23 10:36:00,
2013-03-23 05:41:00,16.3,13.9,30.14,NNW,341,0.0,0.0,90,0.00,,,0.00,Wunderground v.1.15,2013-03-23 10:41:00,
2013-03-23 05:46:00,16.4,14.0,30.14,NNW,342,0.0,0.0,90,0.00,,,0.00,Wunderground v.1.15,2013-03-23 10:46:00,
2013-03-23 05:51:00,16.5,14.3,30.14,NNW,341,0.0,0.0,91,0.00,,,0.00,Wunderground v.1.15,2013-03-23 10:51:00,
2013-03-23 05:56:00,16.7,14.5,30.14,NNW,342,0.0,0.0,91,0.00,,,0.00,Wunderground v.1.15,2013-03-23 10:56:00,
2013-03-23 06:02:00,17.0,14.8,30.14,NNW,342,0.0,0.0,91,0.00,,,0.00,Wunderground v.1.15,2013-03-23 11:02:00,
2013-03-23 06:07:00,17.2,15.0,30.14,NNW,341,0.0,0.0,91,0.00,,,0.00,Wunderground v.1.15,2013-03-23 11:07:00,
2013-03-23 06:12:00,17.5,15.3,30.14,NNW,342,0.0,0.0,91,0.00,,,0.00,Wunderground v.1.15,2013-03-23 11:12:00,
2013-03-23 06:17:00,17.5,15.3,30.15,NNW,341,0.0,0.0,91,0.00,,,0.00,Wunderground v.1.15,2013-03-23 11:17:00,
2013-03-23 06:23:00,17.3,14.9,30.15,NNW,342,0.0,0.0,90,0.00,,,0.00,Wunderground v.1.15,2013-03-23 11:23:00,
2013-03-23 06:28:00,17.1,14.7,30.15,NNW,341,0.0,0.0,90,0.00,,,0.00,Wunderground v.1.15,2013-03-23 11:28:00,
2013-03-23 06:33:00,16.9,14.5,30.16,NNW,342,0.0,0.0,90,0.00,,,0.00,Wunderground v.1.15,2013-03-23 11:33:00,
2013-03-23 06:38:00,16.8,14.4,30.16,NNW,342,0.0,0.0,90,0.00,,,0.00,Wunderground v.1.15,2013-03-23 11:38:00,
2013-03-23 06:44:00,16.7,14.3,30.16,NNW,342,0.0,0.0,90,0.00,,,0.00,Wunderground v.1.15,2013-03-23 11:44:00,
2013-03-23 06:49:00,16.6,14.2,30.16,NNW,342,0.0,0.0,90,0.00,,,0.00,Wunderground v.1.15,2013-03-23 11:49:00,
2013-03-23 06:54:00,16.6,14.2,30.16,NNW,342,0.0,0.0,90,0.00,,,0.00,Wunderground v.1.15,2013-03-23 11:54:00,
2013-03-23 06:59:00,16.5,14.1,30.17,NNW,341,0.0,0.0,90,0.00,,,0.00,Wunderground v.1.15,2013-03-23 11:59:00,
2013-03-23 07:04:00,16.4,14.0,30.16,NNW,342,0.0,0.0,90,0.00,,,0.00,Wunderground v.1.15,2013-03-23 12:04:00,
2013-03-23 07:09:00,16.3,13.9,30.16,NNW,342,0.0,0.0,90,0.00,,,0.00,Wunderground v.1.15,2013-03-23 12:09:00,
2013-03-23 07:14:00,16.3,13.9,30.16,NNW,342,0.0,0.0,90,0.00,,,0.00,Wunderground v.1.15,2013-03-23 12:14:00,
2013-03-23 07:19:00,16.3,13.9,30.16,NNW,342,0.0,0.0,90,0.00,,,0.00,Wunderground v.1.15,2013-03-23 12:19:00,
2013-03-23 07:24:00,16.3,13.9,30.16,NNW,341,0.0,0.0,90,0.00,,,0.00,Wunderground v.1.15,2013-03-23 12:24:00,
2013-03-23 07:29:00,16.2,13.8,30.16,NNW,341,0.0,0.0,90,0.00,,,0.00,Wunderground v.1.15,2013-03-23 12:29:00,
2013-03-23 07:35:00,16.2,13.8,30.16,NNW,342,0.0,0.0,90,0.00,,,0.00,Wunderground v.1.15,2013-03-23 12:35:00,
2013-03-23 07:40:00,16.3,13.9,30.16,NNW,342,0.0,0.0,90,0.00,,,0.00,Wunderground v.1.15,2013-03-23 12:40:00,
2013-03-23 07:45:00,16.3,13.9,30.17,NNW,342,0.0,0.0,90,0.00,,,0.00,Wunderground v.1.15,2013-03-23 12:45:00,
2013-03-23 07:51:00,16.5,14.3,30.17,NNW,342,0.0,0.0,91,0.00,,,0.00,Wunderground v.1.15,2013-03-23 12:51:00,
2013-03-23 07:56:00,16.8,14.6,30.17,NNW,342,0.0,0.0,91,0.00,,,0.00,Wunderground v.1.15,2013-03-23 12:56:00,
2013-03-23 08:01:00,17.3,15.1,30.17,NNW,342,0.0,0.0,91,0.00,,,0.00,Wunderground v.1.15,2013-03-23 13:01:00,
2013-03-23 08:07:00,17.9,15.7,30.17,NNW,342,0.0,0.0,91,0.00,,,0.00,Wunderground v.1.15,2013-03-23 13:07:00,
2013-03-23 08:12:00,18.4,16.2,30.17,NNW,341,0.0,0.0,91,0.00,,,0.00,Wunderground v.1.15,2013-03-23 13:12:00,
2013-03-23 08:17:00,18.9,16.7,30.17,NNW,341,0.0,0.0,91,0.00,,,0.00,Wunderground v.1.15,2013-03-23 13:17:00,
2013-03-23 08:22:00,19.5,17.3,30.18,NNW,341,0.0,0.0,91,0.00,,,0.00,Wunderground v.1.15,2013-03-23 13:22:00,
2013-03-23 08:27:00,20.0,17.8,30.19,NNW,342,0.0,0.0,91,0.00,,,0.00,Wunderground v.1.15,2013-03-23 13:27:00,
2013-03-23 08:32:00,20.7,18.2,30.19,NNW,341,0.0,1.0,90,0.00,,,0.00,Wunderground v.1.15,2013-03-23 13:32:00,
2013-03-23 08:37:00,21.3,18.6,30.19,NNW,341,0.0,2.0,89,0.00,,,0.00,Wunderground v.1.15,2013-03-23 13:37:00,
2013-03-23 08:43:00,21.8,18.8,30.19,NNW,342,0.0,0.0,88,0.00,,,0.00,Wunderground v.1.15,2013-03-23 13:43:00,
2013-03-23 08:48:00,22.4,19.4,30.20,NNW,341,0.0,1.0,88,0.00,,,0.00,Wunderground v.1.15,2013-03-23 13:48:00,
2013-03-23 08:53:00,23.1,19.8,30.20,NNW,341,0.0,0.0,87,0.00,,,0.00,Wunderground v.1.15,2013-03-23 13:53:00,
2013-03-23 08:58:00,23.8,20.2,30.20,NNW,342,0.0,1.0,86,0.00,,,0.00,Wunderground v.1.15,2013-03-23 13:58:00,
2013-03-23 09:03:00,24.7,20.8,30.21,NNW,342,0.0,0.0,85,0.00,,,0.00,Wunderground v.1.15,2013-03-23 14:03:00,
2013-03-23 09:08:00,25.5,21.1,30.20,NNW,342,0.0,0.0,83,0.00,,,0.00,Wunderground v.1.15,2013-03-23 14:08:00,
2013-03-23 09:13:00,26.4,21.7,30.20,NNW,342,0.0,1.0,82,0.00,,,0.00,Wunderground v.1.15,2013-03-23 14:13:00,
2013-03-23 09:18:00,27.2,21.5,30.20,NNW,341,0.0,1.0,79,0.00,,,0.00,Wunderground v.1.15,2013-03-23 14:18:00,
2013-03-23 09:23:00,27.6,21.6,30.20,NNW,341,0.0,0.0,78,0.00,,,0.00,Wunderground v.1.15,2013-03-23 14:23:00,
2013-03-23 09:28:00,28.2,21.6,30.21,NNW,342,0.0,0.0,76,0.00,,,0.00,Wunderground v.1.15,2013-03-23 14:28:00,
2013-03-23 09:33:00,28.8,21.9,30.20,NNW,341,0.0,0.0,75,0.00,,,0.00,Wunderground v.1.15,2013-03-23 14:33:00,
2013-03-23 09:38:00,29.3,22.0,30.20,NNW,342,0.0,3.0,74,0.00,,,0.00,Wunderground v.1.15,2013-03-23 14:38:00,
2013-03-23 09:43:00,30.2,22.3,30.19,NNW,342,0.0,4.0,72,0.00,,,0.00,Wunderground v.1.15,2013-03-23 14:43:00,
2013-03-23 09:48:00,30.6,22.3,30.19,NNW,341,0.0,4.0,71,0.00,,,0.00,Wunderground v.1.15,2013-03-23 14:48:00,
2013-03-23 09:53:00,30.6,21.3,30.19,NNW,341,0.0,5.0,68,0.00,,,0.00,Wunderground v.1.15,2013-03-23 14:53:00,
2013-03-23 09:58:00,30.8,21.5,30.19,NNW,342,0.0,5.0,68,0.00,,,0.00,Wunderground v.1.15,2013-03-23 14:58:00,
2013-03-23 10:03:00,31.2,21.5,30.19,NNE,15,5.0,5.0,67,0.00,,,0.00,Wunderground v.1.15,2013-03-23 15:03:00,
2013-03-23 10:08:00,31.4,21.3,30.18,NNE,15,0.0,5.0,66,0.00,,,0.00,Wunderground v.1.15,2013-03-23 15:08:00,
2013-03-23 10:13:00,31.7,20.9,30.18,NNE,15,0.0,3.0,64,0.00,,,0.00,Wunderground v.1.15,2013-03-23 15:13:00,
2013-03-23 10:19:00,32.4,21.6,30.18,ESE,114,0.0,3.0,64,0.00,,,0.00,Wunderground v.1.15,2013-03-23 15:19:00,
2013-03-23 10:24:00,32.6,21.0,30.18,NE,46,1.0,5.0,62,0.00,,,0.00,Wunderground v.1.15,2013-03-23 15:24:00,
2013-03-23 10:29:00,32.3,20.0,30.19,ENE,59,0.0,6.0,60,0.00,,,0.00,Wunderground v.1.15,2013-03-23 15:29:00,
2013-03-23 10:34:00,32.5,20.1,30.19,NE,48,0.0,3.0,60,0.00,,,0.00,Wunderground v.1.15,2013-03-23 15:34:00,
2013-03-23 10:39:00,33.1,21.1,30.19,NE,48,0.0,3.0,61,0.00,,,0.00,Wunderground v.1.15,2013-03-23 15:39:00,
2013-03-23 10:44:00,33.3,20.5,30.19,ENE,59,0.0,5.0,59,0.00,,,0.00,Wunderground v.1.15,2013-03-23 15:44:00,
2013-03-23 10:50:00,33.2,20.4,30.19,NNW,348,0.0,5.0,59,0.00,,,0.00,Wunderground v.1.15,2013-03-23 15:50:00,
2013-03-23 10:55:00,33.1,19.9,30.19,NNE,25,0.0,10.0,58,0.00,,,0.00,Wunderground v.1.15,2013-03-23 15:55:00,
2013-03-23 11:00:00,32.9,20.1,30.19,NNE,25,2.0,11.0,59,0.00,,,0.00,Wunderground v.1.15,2013-03-23 16:00:00,
2013-03-23 11:05:00,33.0,19.8,30.19,North,360,0.0,4.0,58,0.00,,,0.00,Wunderground v.1.15,2013-03-23 16:05:00,
2013-03-23 11:10:00,33.2,19.6,30.19,NNE,27,0.0,1.0,57,0.00,,,0.00,Wunderground v.1.15,2013-03-23 16:10:00,
2013-03-23 11:15:00,33.5,19.9,30.19,NNE,27,0.0,3.0,57,0.00,,,0.00,Wunderground v.1.15,2013-03-23 16:15:00,
2013-03-23 11:20:00,33.6,19.6,30.18,NNE,27,2.0,2.0,56,0.00,,,0.00,Wunderground v.1.15,2013-03-23 16:20:00,
2013-03-23 11:26:00,33.8,19.7,30.19,ENE,64,0.0,5.0,56,0.00,,,0.00,Wunderground v.1.15,2013-03-23 16:26:00,
2013-03-23 11:31:00,34.3,20.2,30.19,ENE,62,2.0,3.0,56,0.00,,,0.00,Wunderground v.1.15,2013-03-23 16:31:00,
2013-03-23 11:36:00,34.4,19.5,30.19,NE,55,0.0,4.0,54,0.00,,,0.00,Wunderground v.1.15,2013-03-23 16:36:00,
2013-03-23 11:41:00,34.6,19.6,30.19,NE,55,0.0,11.0,54,0.00,,,0.00,Wunderground v.1.15,2013-03-23 16:41:00,
2013-03-23 11:47:00,34.7,20.2,30.18,NNE,32,3.0,11.0,55,0.00,,,0.00,Wunderground v.1.15,2013-03-23 16:47:00,
2013-03-23 11:52:00,35.0,20.0,30.18,East,90,0.0,3.0,54,0.00,,,0.00,Wunderground v.1.15,2013-03-23 16:52:00,
2013-03-23 11:57:00,35.4,20.4,30.18,East,90,0.0,3.0,54,0.00,,,0.00,Wunderground v.1.15,2013-03-23 16:57:00,
2013-03-23 12:02:00,35.7,20.2,30.18,East,90,1.0,1.0,53,0.00,,,0.00,Wunderground v.1.15,2013-03-23 17:02:00,
2013-03-23 12:07:00,35.8,19.9,30.18,NE,46,0.0,9.0,52,0.00,,,0.00,Wunderground v.1.15,2013-03-23 17:07:00,
2013-03-23 12:13:00,36.1,20.6,30.18,NNE,29,2.0,2.0,53,0.00,,,0.00,Wunderground v.1.15,2013-03-23 17:13:00,
2013-03-23 12:18:00,36.2,20.2,30.19,NE,34,0.0,2.0,52,0.00,,,0.00,Wunderground v.1.15,2013-03-23 17:18:00,
2013-03-23 12:23:00,36.5,20.1,30.18,NNE,19,0.0,4.0,51,0.00,,,0.00,Wunderground v.1.15,2013-03-23 17:23:00,
2013-03-23 12:28:00,36.2,20.7,30.18,NNE,29,0.0,6.0,53,0.00,,,0.00,Wunderground v.1.15,2013-03-23 17:28:00,
2013-03-23 12:33:00,36.5,20.5,30.18,NNE,29,1.0,2.0,52,0.00,,,0.00,Wunderground v.1.15,2013-03-23 17:33:00,
2013-03-23 12:38:00,37.0,20.5,30.18,North,355,1.0,7.0,51,0.00,,,0.00,Wunderground v.1.15,2013-03-23 17:38:00,
2013-03-23 12:43:00,36.6,20.6,30.18,ENE,57,0.0,4.0,52,0.00,,,0.00,Wunderground v.1.15,2013-03-23 17:43:00,
2013-03-23 12:49:00,36.7,20.7,30.18,North,355,0.0,7.0,52,0.00,,,0.00,Wunderground v.1.15,2013-03-23 17:49:00,
2013-03-23 12:54:00,37.4,20.9,30.17,NW,304,0.0,4.0,51,0.00,,,0.00,Wunderground v.1.15,2013-03-23 17:54:00,
2013-03-23 13:00:00,37.4,20.0,30.17,NE,41,3.0,3.0,49,0.00,,,0.00,Wunderground v.1.15,2013-03-23 18:00:00,
2013-03-23 13:05:00,36.6,20.2,30.17,NNW,336,3.0,9.0,51,0.00,,,0.00,Wunderground v.1.15,2013-03-23 18:05:00,
2013-03-23 13:10:00,36.7,20.3,30.17,NE,37,4.0,4.0,51,0.00,,,0.00,Wunderground v.1.15,2013-03-23 18:10:00,
2013-03-23 13:15:00,36.6,20.6,30.16,NE,49,0.0,4.0,52,0.00,,,0.00,Wunderground v.1.15,2013-03-23 18:15:00,
2013-03-23 13:20:00,36.9,21.3,30.16,ENE,62,0.0,1.0,53,0.00,,,0.00,Wunderground v.1.15,2013-03-23 18:20:00,
2013-03-23 13:26:00,36.8,20.8,30.16,NNE,26,6.0,6.0,52,0.00,,,0.00,Wunderground v.1.15,2013-03-23 18:26:00,
2013-03-23 13:32:00,36.7,20.7,30.16,ENE,60,1.0,5.0,52,0.00,,,0.00,Wunderground v.1.15,2013-03-23 18:32:00,
2013-03-23 13:37:00,36.6,21.1,30.15,NNE,17,4.0,6.0,53,0.00,,,0.00,Wunderground v.1.15,2013-03-23 18:37:00,
2013-03-23 13:42:00,36.8,20.8,30.15,NE,38,3.0,4.0,52,0.00,,,0.00,Wunderground v.1.15,2013-03-23 18:42:00,
2013-03-23 13:47:00,37.1,21.5,30.15,NE,49,1.0,5.0,53,0.00,,,0.00,Wunderground v.1.15,2013-03-23 18:47:00,
2013-03-23 13:52:00,37.6,21.5,30.15,NE,36,1.0,5.0,52,0.00,,,0.00,Wunderground v.1.15,2013-03-23 18:52:00,
2013-03-23 13:57:00,37.2,20.7,30.15,NE,41,1.0,11.0,51,0.00,,,0.00,Wunderground v.1.15,2013-03-23 18:57:00,
2013-03-23 14:03:00,37.3,21.7,30.15,NE,40,0.0,3.0,53,0.00,,,0.00,Wunderground v.1.15,2013-03-23 19:03:00,
2013-03-23 14:08:00,38.0,21.9,30.15,NW,317,0.0,6.0,52,0.00,,,0.00,Wunderground v.1.15,2013-03-23 19:08:00,
2013-03-23 14:13:00,38.6,21.5,30.15,NNE,17,0.0,6.0,50,0.00,,,0.00,Wunderground v.1.15,2013-03-23 19:13:00,
2013-03-23 14:18:00,38.3,20.3,30.15,North,355,0.0,6.0,48,0.00,,,0.00,Wunderground v.1.15,2013-03-23 19:18:00,
2013-03-23 14:23:00,37.8,20.8,30.15,NNE,19,4.0,6.0,50,0.00,,,0.00,Wunderground v.1.15,2013-03-23 19:23:00,
2013-03-23 14:28:00,38.3,21.3,30.15,NNE,19,0.0,6.0,50,0.00,,,0.00,Wunderground v.1.15,2013-03-23 19:28:00,
2013-03-23 14:33:00,39.2,22.1,30.15,NNE,29,8.0,8.0,50,0.00,,,0.00,Wunderground v.1.15,2013-03-23 19:33:00,
2013-03-23 14:38:00,38.7,20.7,30.15,NNW,331,10.0,10.0,48,0.00,,,0.00,Wunderground v.1.15,2013-03-23 19:38:00,
2013-03-23 14:44:00,38.7,21.2,30.15,East,80,0.0,10.0,49,0.00,,,0.00,Wunderground v.1.15,2013-03-23 19:44:00,
2013-03-23 14:49:00,38.7,21.2,30.14,NNE,19,0.0,10.0,49,0.00,,,0.00,Wunderground v.1.15,2013-03-23 19:49:00,
2013-03-23 14:54:00,39.2,21.6,30.14,NNE,19,0.0,4.0,49,0.00,,,0.00,Wunderground v.1.15,2013-03-23 19:54:00,
2013-03-23 14:59:00,39.2,21.6,30.14,NE,38,5.0,5.0,49,0.00,,,0.00,Wunderground v.1.15,2013-03-23 19:59:00,
2013-03-23 15:05:00,38.8,20.8,30.14,North,355,0.0,6.0,48,0.00,,,0.00,Wunderground v.1.15,2013-03-23 20:05:00,
2013-03-23 15:10:00,38.7,21.2,30.14,NNE,18,0.0,11.0,49,0.00,,,0.00,Wunderground v.1.15,2013-03-23 20:10:00,
2013-03-23 15:15:00,38.2,20.7,30.14,NNE,24,3.0,13.0,49,0.00,,,0.00,Wunderground v.1.15,2013-03-23 20:15:00,
2013-03-23 15:20:00,38.1,21.5,30.14,NNE,24,0.0,13.0,51,0.00,,,0.00,Wunderground v.1.15,2013-03-23 20:20:00,
2013-03-23 15:25:00,37.8,20.8,30.14,NNE,19,3.0,12.0,50,0.00,,,0.00,Wunderground v.1.15,2013-03-23 20:25:00,
2013-03-23 15:30:00,37.4,20.4,30.14,NNE,19,9.0,12.0,50,0.00,,,0.00,Wunderground v.1.15,2013-03-23 20:30:00,
2013-03-23 15:35:00,37.5,21.0,30.14,North,350,3.0,9.0,51,0.00,,,0.00,Wunderground v.1.15,2013-03-23 20:35:00,
2013-03-23 15:40:00,37.7,21.2,30.14,NNE,26,6.0,6.0,51,0.00,,,0.00,Wunderground v.1.15,2013-03-23 20:40:00,
2013-03-23 15:45:00,37.8,21.7,30.14,NNW,336,8.0,8.0,52,0.00,,,0.00,Wunderground v.1.15,2013-03-23 20:45:00,
2013-03-23 15:51:00,37.5,21.5,30.14,NNE,12,0.0,10.0,52,0.00,,,0.00,Wunderground v.1.15,2013-03-23 20:51:00,
2013-03-23 15:57:00,37.0,21.9,30.13,North,360,2.0,13.0,54,0.00,,,0.00,Wunderground v.1.15,2013-03-23 20:57:00,
2013-03-23 16:02:00,36.8,21.7,30.13,NW,325,0.0,13.0,54,0.00,,,0.00,Wunderground v.1.15,2013-03-23 21:02:00,
2013-03-23 16:07:00,36.5,21.4,30.13,NNW,338,0.0,13.0,54,0.00,,,0.00,Wunderground v.1.15,2013-03-23 21:07:00,
2013-03-23 16:12:00,36.4,21.8,30.13,NW,325,2.0,3.0,55,0.00,,,0.00,Wunderground v.1.15,2013-03-23 21:12:00,
2013-03-23 16:17:00,36.5,21.8,30.13,NNW,346,1.0,6.0,55,0.00,,,0.00,Wunderground v.1.15,2013-03-23 21:17:00,
2013-03-23 16:22:00,36.7,22.5,30.13,NNW,331,5.0,5.0,56,0.00,,,0.00,Wunderground v.1.15,2013-03-23 21:22:00,
2013-03-23 16:28:00,36.9,24.3,30.13,North,360,4.0,10.0,60,0.00,,,0.00,Wunderground v.1.15,2013-03-23 21:28:00,
2013-03-23 16:34:00,37.0,24.0,30.13,NE,44,5.0,7.0,59,0.00,,,0.00,Wunderground v.1.15,2013-03-23 21:34:00,
2013-03-23 16:40:00,37.1,24.5,30.13,NNW,341,4.0,4.0,60,0.00,,,0.00,Wunderground v.1.15,2013-03-23 21:40:00,
2013-03-23 16:45:00,36.8,23.8,30.13,NNE,17,5.0,8.0,59,0.00,,,0.00,Wunderground v.1.15,2013-03-23 21:45:00,
2013-03-23 16:50:00,36.6,23.6,30.13,North,355,2.0,4.0,59,0.00,,,0.00,Wunderground v.1.15,2013-03-23 21:50:00,
2013-03-23 16:56:00,36.2,23.6,30.13,NNW,346,3.0,7.0,60,0.00,,,0.00,Wunderground v.1.15,2013-03-23 21:56:00,
2013-03-23 17:01:00,36.0,23.8,30.13,NNE,26,2.0,4.0,61,0.00,,,0.00,Wunderground v.1.15,2013-03-23 22:01:00,
2013-03-23 17:06:00,35.9,23.4,30.13,North,355,5.0,7.0,60,0.00,,,0.00,Wunderground v.1.15,2013-03-23 22:06:00,
2013-03-23 17:11:00,35.7,23.6,30.13,North,5,1.0,5.0,61,0.00,,,0.00,Wunderground v.1.15,2013-03-23 22:11:00,
2013-03-23 17:16:00,35.5,23.4,30.13,North,5,3.0,6.0,61,0.00,,,0.00,Wunderground v.1.15,2013-03-23 22:16:00,
2013-03-23 17:21:00,35.2,23.1,30.12,NE,35,3.0,9.0,61,0.00,,,0.00,Wunderground v.1.15,2013-03-23 22:21:00,
2013-03-23 17:26:00,35.1,22.6,30.12,NE,34,4.0,9.0,60,0.00,,,0.00,Wunderground v.1.15,2013-03-23 22:26:00,
2013-03-23 17:32:00,35.1,23.4,30.12,NNE,32,5.0,5.0,62,0.00,,,0.00,Wunderground v.1.15,2013-03-23 22:32:00,
2013-03-23 17:37:00,35.2,24.6,30.12,NE,38,5.0,7.0,65,0.00,,,0.00,Wunderground v.1.15,2013-03-23 22:37:00,
2013-03-23 17:42:00,35.2,25.3,30.12,ENE,59,4.0,6.0,67,0.00,,,0.00,Wunderground v.1.15,2013-03-23 22:42:00,
2013-03-23 17:47:00,35.0,25.5,30.12,East,94,4.0,6.0,68,0.00,,,0.00,Wunderground v.1.15,2013-03-23 22:47:00,
2013-03-23 17:52:00,34.8,25.3,30.12,ESE,104,3.0,4.0,68,0.00,,,0.00,Wunderground v.1.15,2013-03-23 22:52:00,
2013-03-23 17:58:00,34.7,25.6,30.12,East,90,4.0,6.0,69,0.00,,,0.00,Wunderground v.1.15,2013-03-23 22:58:00,
2013-03-23 18:03:00,34.5,25.4,30.12,ESE,111,5.0,6.0,69,0.00,,,0.00,Wunderground v.1.15,2013-03-23 23:03:00,
2013-03-23 18:08:00,34.4,25.6,30.12,East,88,3.0,8.0,70,0.00,,,0.00,Wunderground v.1.15,2013-03-23 23:08:00,
2013-03-23 18:13:00,34.2,25.4,30.12,East,95,5.0,6.0,70,0.00,,,0.00,Wunderground v.1.15,2013-03-23 23:13:00,
2013-03-23 18:19:00,34.0,25.2,30.12,ENE,71,7.0,7.0,70,0.00,,,0.00,Wunderground v.1.15,2013-03-23 23:19:00,
2013-03-23 18:24:00,33.7,25.3,30.12,East,79,3.0,7.0,71,0.00,,,0.00,Wunderground v.1.15,2013-03-23 23:24:00,
2013-03-23 18:29:00,33.5,25.1,30.12,ENE,71,6.0,9.0,71,0.00,,,0.00,Wunderground v.1.15,2013-03-23 23:29:00,
2013-03-23 18:34:00,33.4,25.0,30.11,ESE,109,2.0,8.0,71,0.00,,,0.00,Wunderground v.1.15,2013-03-23 23:34:00,
2013-03-23 18:39:00,33.3,25.2,30.11,ESE,119,4.0,8.0,72,0.00,,,0.00,Wunderground v.1.15,2013-03-23 23:39:00,
2013-03-23 18:44:00,33.2,25.1,30.11,ESE,113,3.0,7.0,72,0.00,,,0.00,Wunderground v.1.15,2013-03-23 23:44:00,
2013-03-23 18:50:00,33.1,25.4,30.12,ESE,103,1.0,7.0,73,0.00,,,0.00,Wunderground v.1.15,2013-03-23 23:50:00,
2013-03-23 18:55:00,33.0,25.6,30.12,East,90,1.0,6.0,74,0.00,,,0.00,Wunderground v.1.15,2013-03-23 23:55:00,
2013-03-23 19:00:00,32.9,25.5,30.11,East,96,1.0,1.0,74,0.00,,,0.00,Wunderground v.1.15,2013-03-24 00:00:00,
2013-03-23 19:05:00,32.8,25.7,30.12,East,101,4.0,4.0,75,0.00,,,0.00,Wunderground v.1.15,2013-03-24 00:05:00,
2013-03-23 19:11:00,32.6,25.2,30.12,SSE,167,3.0,3.0,74,0.00,,,0.00,Wunderground v.1.15,2013-03-24 00:11:00,
2013-03-23 19:16:00,32.6,25.2,30.12,ESE,115,0.0,5.0,74,0.00,,,0.00,Wunderground v.1.15,2013-03-24 00:16:00,
2013-03-23 19:21:00,32.4,25.4,30.12,SE,127,1.0,5.0,75,0.00,,,0.00,Wunderground v.1.15,2013-03-24 00:21:00,
2013-03-23 19:27:00,32.3,24.9,30.12,SE,126,5.0,9.0,74,0.00,,,0.00,Wunderground v.1.15,2013-03-24 00:27:00,
2013-03-23 19:32:00,32.2,25.2,30.12,East,84,3.0,7.0,75,0.00,,,0.00,Wunderground v.1.15,2013-03-24 00:32:00,
2013-03-23 19:37:00,32.1,25.1,30.12,East,84,4.0,8.0,75,0.00,,,0.00,Wunderground v.1.15,2013-03-24 00:37:00,
2013-03-23 19:42:00,32.0,25.3,30.12,ESE,107,0.0,5.0,76,0.00,,,0.00,Wunderground v.1.15,2013-03-24 00:42:00,
2013-03-23 19:47:00,31.9,25.2,30.12,East,90,4.0,7.0,76,0.00,,,0.00,Wunderground v.1.15,2013-03-24 00:47:00,
2013-03-23 19:52:00,31.8,25.1,30.12,ESE,104,3.0,4.0,76,0.00,,,0.00,Wunderground v.1.15,2013-03-24 00:52:00,
2013-03-23 19:57:00,31.6,25.2,30.12,East,88,3.0,5.0,77,0.00,,,0.00,Wunderground v.1.15,2013-03-24 00:57:00,
2013-03-23 20:03:00,31.5,25.1,30.12,East,86,5.0,7.0,77,0.00,,,0.00,Wunderground v.1.15,2013-03-24 01:03:00,
2013-03-23 20:08:00,31.4,25.0,30.13,ESE,107,3.0,7.0,77,0.00,,,0.00,Wunderground v.1.15,2013-03-24 01:08:00,
2013-03-23 20:13:00,31.2,24.8,30.13,East,98,2.0,4.0,77,0.00,,,0.00,Wunderground v.1.15,2013-03-24 01:13:00,
2013-03-23 20:18:00,31.1,24.7,30.13,East,88,2.0,6.0,77,0.00,,,0.00,Wunderground v.1.15,2013-03-24 01:18:00,
2013-03-23 20:23:00,31.0,24.9,30.14,ESE,107,4.0,5.0,78,0.00,,,0.00,Wunderground v.1.15,2013-03-24 01:23:00,
2013-03-23 20:28:00,31.0,24.9,30.13,East,90,2.0,7.0,78,0.00,,,0.00,Wunderground v.1.15,2013-03-24 01:28:00,
2013-03-23 20:33:00,30.9,25.2,30.13,East,98,2.0,5.0,79,0.00,,,0.00,Wunderground v.1.15,2013-03-24 01:33:00,
2013-03-23 20:38:00,30.9,25.2,30.13,ESE,111,3.0,5.0,79,0.00,,,0.00,Wunderground v.1.15,2013-03-24 01:38:00,
2013-03-23 20:43:00,30.8,25.1,30.14,ESE,120,2.0,3.0,79,0.00,,,0.00,Wunderground v.1.15,2013-03-24 01:43:00,
2013-03-23 20:48:00,30.7,25.3,30.14,ESE,117,1.0,3.0,80,0.00,,,0.00,Wunderground v.1.15,2013-03-24 01:48:00,
2013-03-23 20:53:00,30.7,25.3,30.14,ESE,108,2.0,3.0,80,0.00,,,0.00,Wunderground v.1.15,2013-03-24 01:53:00,
2013-03-23 20:58:00,30.6,25.2,30.14,ESE,114,0.0,5.0,80,0.00,,,0.00,Wunderground v.1.15,2013-03-24 01:58:00,
2013-03-23 21:03:00,30.6,25.2,30.14,ESE,103,3.0,3.0,80,0.00,,,0.00,Wunderground v.1.15,2013-03-24 02:03:00,
2013-03-23 21:08:00,30.6,25.2,30.13,East,98,0.0,4.0,80,0.00,,,0.00,Wunderground v.1.15,2013-03-24 02:08:00,
2013-03-23 21:13:00,30.6,25.2,30.13,ESE,107,2.0,2.0,80,0.00,,,0.00,Wunderground v.1.15,2013-03-24 02:13:00,
2013-03-23 21:18:00,30.6,25.2,30.13,ESE,114,4.0,4.0,80,0.00,,,0.00,Wunderground v.1.15,2013-03-24 02:18:00,
2013-03-23 21:23:00,30.6,25.2,30.13,ESE,108,1.0,3.0,80,0.00,,,0.00,Wunderground v.1.15,2013-03-24 02:23:00,
2013-03-23 21:29:00,30.5,25.4,30.13,ESE,103,2.0,3.0,81,0.00,,,0.00,Wunderground v.1.15,2013-03-24 02:29:00,
2013-03-23 21:34:00,30.5,25.4,30.14,ESE,106,1.0,3.0,81,0.00,,,0.00,Wunderground v.1.15,2013-03-24 02:34:00,
2013-03-23 21:39:00,30.5,25.4,30.13,ESE,103,0.0,3.0,81,0.00,,,0.00,Wunderground v.1.15,2013-03-24 02:39:00,
2013-03-23 21:44:00,30.5,25.4,30.13,East,90,2.0,2.0,81,0.00,,,0.00,Wunderground v.1.15,2013-03-24 02:44:00,
2013-03-23 21:49:00,30.4,25.3,30.13,East,99,2.0,3.0,81,0.00,,,0.00,Wunderground v.1.15,2013-03-24 02:49:00,
2013-03-23 21:54:00,30.3,25.2,30.13,East,96,1.0,2.0,81,0.00,,,0.00,Wunderground v.1.15,2013-03-24 02:54:00,
2013-03-23 22:00:00,30.3,25.2,30.13,East,98,0.0,4.0,81,0.00,,,0.00,Wunderground v.1.15,2013-03-24 03:00:00,
2013-03-23 22:04:00,30.2,25.1,30.13,ESE,103,0.0,3.0,81,0.00,,,0.00,Wunderground v.1.15,2013-03-24 03:04:00,
2013-03-23 22:10:00,30.1,25.0,30.13,East,90,1.0,3.0,81,0.00,,,0.00,Wunderground v.1.15,2013-03-24 03:10:00,
2013-03-23 22:15:00,29.9,24.8,30.13,East,92,0.0,2.0,81,0.00,,,0.00,Wunderground v.1.15,2013-03-24 03:15:00,
2013-03-23 22:20:00,29.9,24.8,30.13,East,90,0.0,1.0,81,0.00,,,0.00,Wunderground v.1.15,2013-03-24 03:20:00,
2013-03-23 22:26:00,29.8,24.7,30.13,East,88,0.0,2.0,81,0.00,,,0.00,Wunderground v.1.15,2013-03-24 03:26:00,
2013-03-23 22:31:00,29.7,24.3,30.13,East,98,1.0,1.0,80,0.00,,,0.00,Wunderground v.1.15,2013-03-24 03:31:00,
2013-03-23 22:36:00,29.7,24.3,30.13,East,90,0.0,1.0,80,0.00,,,0.00,Wunderground v.1.15,2013-03-24 03:36:00,
2013-03-23 22:41:00,29.7,24.3,30.13,East,90,0.0,0.0,80,0.00,,,0.00,Wunderground v.1.15,2013-03-24 03:41:00,
2013-03-23 22:46:00,29.6,24.2,30.12,East,90,0.0,1.0,80,0.00,,,0.00,Wunderground v.1.15,2013-03-24 03:46:00,
2013-03-23 22:51:00,29.7,24.3,30.12,NE,54,2.0,4.0,80,0.00,,,0.00,Wunderground v.1.15,2013-03-24 03:51:00,
2013-03-23 22:57:00,29.7,24.0,30.11,ENE,59,4.0,11.0,79,0.00,,,0.00,Wunderground v.1.15,2013-03-24 03:57:00,
2013-03-23 23:00:00,29.8,23.8,30.11,East,82,2.0,11.0,78,0.00,,,0.00,Wunderground v.1.15,2013-03-24 04:00:00,
2013-03-23 23:02:00,29.9,23.9,30.12,NNE,32,0.0,6.0,78,0.00,,,0.00,Wunderground v.1.15,2013-03-24 04:02:00,
2013-03-23 23:07:00,29.9,23.6,30.12,ENE,58,1.0,7.0,77,0.00,,,0.00,Wunderground v.1.15,2013-03-24 04:07:00,
2013-03-23 23:12:00,29.9,23.3,30.12,ENE,61,4.0,4.0,76,0.00,,,0.00,Wunderground v.1.15,2013-03-24 04:12:00,
2013-03-23 23:17:00,29.9,23.3,30.12,ENE,70,2.0,4.0,76,0.00,,,0.00,Wunderground v.1.15,2013-03-24 04:17:00,
2013-03-23 23:22:00,29.9,23.3,30.11,ENE,78,3.0,3.0,76,0.00,,,0.00,Wunderground v.1.15,2013-03-24 04:22:00,
2013-03-23 23:27:00,29.9,23.3,30.11,East,79,5.0,7.0,76,0.00,,,0.00,Wunderground v.1.15,2013-03-24 04:27:00,
2013-03-23 23:33:00,29.9,23.3,30.11,ENE,61,2.0,5.0,76,0.00,,,0.00,Wunderground v.1.15,2013-03-24 04:33:00,
2013-03-23 23:39:00,29.9,23.3,30.12,ENE,66,1.0,7.0,76,0.00,,,0.00,Wunderground v.1.15,2013-03-24 04:39:00,
2013-03-23 23:44:00,29.9,23.3,30.11,NE,51,2.0,6.0,76,0.00,,,0.00,Wunderground v.1.15,2013-03-24 04:44:00,
2013-03-23 23:49:00,29.8,23.2,30.11,NE,37,3.0,6.0,76,0.00,,,0.00,Wunderground v.1.15,2013-03-24 04:49:00,
2013-03-23 23:54:00,29.8,23.5,30.11,NE,56,1.0,3.0,77,0.00,,,0.00,Wunderground v.1.15,2013-03-24 04:54:00,
2013-03-23 23:59:00,29.7,23.4,30.11,NE,37,1.0,3.0,77,0.00,,,0.00,Wunderground v.1.15,2013-03-24 04:59:00,